Details for Aegean Airlines at LGTS




Go Back


Latest METAR
Local Time

LGTS 241350Z 36007KT 9999 FEW008 BKN020 10/03 Q1007 NOSIG

24/02/2018, 16:05:14

Description
Results
Aegean Airlines Logo
Number of Pilots based at LGTS
0 Pilots Based here
Number of Aegean Airlines Flights Departed from LGTS
0 Flights Departed
Number of Aegean Airlines Flights Arrived at LGTS
0 Flights Arrived
Number of Aegean Airlines Schedules Departing from LGTS
18 Schedules
Number of Aegean Airlines Schedules Arriving at LGTS
18 Schedules
Number of Aegean Airlines Schedules Departing from LGTS availible today
11 Schedules Today
Number of Aegean Airlines Schedules Arriving at LGTS availible today
9 Schedules Today
Average Landing Rate at LGTS
-217 fpm
Aegean Airlines Average Landing Rate at LGTS
0 fpm
Total Fuel Purchased at LGTS by Aegean Airlines
0.00 kgs / 0.00 lbs

Pilots Based at LGTS


Pilot ID
Pilot Name
Pilot Rank
No. of Flights
No. of Flying Hours
There are no pilots assigned to this hub!   Will you be the first?
Content